sensor_id;sensor_type;location;lat;lon;timestamp;P1;durP1;ratioP1;P2;durP2;ratioP2
12275;SDS011;6200;48.144;11.424;2024-02-21T00:00:09;0.40;;;0.40;;
12275;SDS011;6200;48.144;11.424;2024-02-21T00:02:36;0.47;;;0.47;;
12275;SDS011;6200;48.144;11.424;2024-02-21T00:05:02;0.50;;;0.50;;
12275;SDS011;6200;48.144;11.424;2024-02-21T00:07:28;0.47;;;0.47;;
12275;SDS011;6200;48.144;11.424;2024-02-21T00:09:53;0.30;;;0.30;;
12275;SDS011;6200;48.144;11.424;2024-02-21T00:12:19;0.60;;;0.60;;
12275;SDS011;6200;48.144;11.424;2024-02-21T00:14:44;0.30;;;0.30;;
12275;SDS011;6200;48.144;11.424;2024-02-21T00:17:10;0.50;;;0.50;;
12275;SDS011;6200;48.144;11.424;2024-02-21T00:19:35;0.30;;;0.30;;
12275;SDS011;6200;48.144;11.424;2024-02-21T00:22:01;0.30;;;0.30;;
12275;SDS011;6200;48.144;11.424;2024-02-21T00:24:26;0.40;;;0.40;;
12275;SDS011;6200;48.144;11.424;2024-02-21T00:26:53;0.27;;;0.27;;
12275;SDS011;6200;48.144;11.424;2024-02-21T00:29:19;0.40;;;0.40;;
12275;SDS011;6200;48.144;11.424;2024-02-21T00:31:45;0.40;;;0.40;;
12275;SDS011;6200;48.144;11.424;2024-02-21T00:34:10;0.47;;;0.47;;
12275;SDS011;6200;48.144;11.424;2024-02-21T00:36:37;0.30;;;0.30;;
12275;SDS011;6200;48.144;11.424;2024-02-21T00:39:03;0.40;;;0.40;;
12275;SDS011;6200;48.144;11.424;2024-02-21T00:41:29;0.30;;;0.30;;
12275;SDS011;6200;48.144;11.424;2024-02-21T00:43:54;0.40;;;0.40;;
12275;SDS011;6200;48.144;11.424;2024-02-21T00:46:20;0.30;;;0.30;;
12275;SDS011;6200;48.144;11.424;2024-02-21T00:48:45;0.40;;;0.40;;
12275;SDS011;6200;48.144;11.424;2024-02-21T00:51:12;0.40;;;0.40;;
12275;SDS011;6200;48.144;11.424;2024-02-21T00:53:37;0.40;;;0.40;;
12275;SDS011;6200;48.144;11.424;2024-02-21T00:56:04;0.40;;;0.40;;
12275;SDS011;6200;48.144;11.424;2024-02-21T00:58:30;0.37;;;0.37;;
12275;SDS011;6200;48.144;11.424;2024-02-21T01:00:56;0.43;;;0.43;;
12275;SDS011;6200;48.144;11.424;2024-02-21T01:03:21;0.43;;;0.43;;
12275;SDS011;6200;48.144;11.424;2024-02-21T01:05:47;0.40;;;0.40;;
12275;SDS011;6200;48.144;11.424;2024-02-21T01:08:12;0.40;;;0.40;;
12275;SDS011;6200;48.144;11.424;2024-02-21T01:10:38;0.47;;;0.47;;
12275;SDS011;6200;48.144;11.424;2024-02-21T01:13:03;0.30;;;0.30;;
12275;SDS011;6200;48.144;11.424;2024-02-21T01:15:29;0.47;;;0.47;;
12275;SDS011;6200;48.144;11.424;2024-02-21T01:17:54;0.40;;;0.40;;
12275;SDS011;6200;48.144;11.424;2024-02-21T01:20:20;0.37;;;0.37;;
12275;SDS011;6200;48.144;11.424;2024-02-21T01:22:46;0.40;;;0.40;;
12275;SDS011;6200;48.144;11.424;2024-02-21T01:25:12;0.30;;;0.30;;
12275;SDS011;6200;48.144;11.424;2024-02-21T01:27:37;0.40;;;0.40;;
12275;SDS011;6200;48.144;11.424;2024-02-21T01:30:03;0.50;;;0.50;;
12275;SDS011;6200;48.144;11.424;2024-02-21T01:32:30;0.40;;;0.40;;
12275;SDS011;6200;48.144;11.424;2024-02-21T01:34:56;0.40;;;0.40;;
12275;SDS011;6200;48.144;11.424;2024-02-21T01:37:21;0.40;;;0.40;;
12275;SDS011;6200;48.144;11.424;2024-02-21T01:39:47;0.40;;;0.40;;
12275;SDS011;6200;48.144;11.424;2024-02-21T01:42:14;0.50;;;0.50;;
12275;SDS011;6200;48.144;11.424;2024-02-21T01:44:40;0.40;;;0.40;;
12275;SDS011;6200;48.144;11.424;2024-02-21T01:47:06;0.40;;;0.40;;
12275;SDS011;6200;48.144;11.424;2024-02-21T01:49:32;0.40;;;0.40;;
12275;SDS011;6200;48.144;11.424;2024-02-21T01:51:58;0.50;;;0.50;;
12275;SDS011;6200;48.144;11.424;2024-02-21T01:54:24;0.40;;;0.40;;
12275;SDS011;6200;48.144;11.424;2024-02-21T01:56:53;0.50;;;0.50;;
12275;SDS011;6200;48.144;11.424;2024-02-21T01:59:19;0.40;;;0.40;;
12275;SDS011;6200;48.144;11.424;2024-02-21T02:01:46;0.40;;;0.40;;
12275;SDS011;6200;48.144;11.424;2024-02-21T02:04:12;0.60;;;0.60;;
12275;SDS011;6200;48.144;11.424;2024-02-21T02:06:39;0.50;;;0.50;;
12275;SDS011;6200;48.144;11.424;2024-02-21T02:09:05;0.30;;;0.30;;
12275;SDS011;6200;48.144;11.424;2024-02-21T02:11:31;0.30;;;0.30;;
12275;SDS011;6200;48.144;11.424;2024-02-21T02:13:57;0.50;;;0.50;;
12275;SDS011;6200;48.144;11.424;2024-02-21T02:16:23;0.30;;;0.30;;
12275;SDS011;6200;48.144;11.424;2024-02-21T02:18:48;0.43;;;0.43;;
12275;SDS011;6200;48.144;11.424;2024-02-21T02:21:20;0.47;;;0.47;;
12275;SDS011;6200;48.144;11.424;2024-02-21T02:23:52;0.40;;;0.40;;
12275;SDS011;6200;48.144;11.424;2024-02-21T02:26:17;0.47;;;0.47;;
12275;SDS011;6200;48.144;11.424;2024-02-21T02:28:43;0.30;;;0.30;;
12275;SDS011;6200;48.144;11.424;2024-02-21T02:31:08;0.47;;;0.47;;
12275;SDS011;6200;48.144;11.424;2024-02-21T02:33:34;0.47;;;0.47;;
12275;SDS011;6200;48.144;11.424;2024-02-21T02:35:59;0.50;;;0.50;;
12275;SDS011;6200;48.144;11.424;2024-02-21T02:38:25;0.40;;;0.40;;
12275;SDS011;6200;48.144;11.424;2024-02-21T02:40:50;0.40;;;0.40;;
12275;SDS011;6200;48.144;11.424;2024-02-21T02:43:16;0.50;;;0.50;;
12275;SDS011;6200;48.144;11.424;2024-02-21T02:45:41;0.40;;;0.40;;
12275;SDS011;6200;48.144;11.424;2024-02-21T02:48:07;0.40;;;0.40;;
12275;SDS011;6200;48.144;11.424;2024-02-21T02:50:33;0.50;;;0.50;;
12275;SDS011;6200;48.144;11.424;2024-02-21T02:52:58;0.40;;;0.40;;
12275;SDS011;6200;48.144;11.424;2024-02-21T02:55:24;0.30;;;0.30;;
12275;SDS011;6200;48.144;11.424;2024-02-21T02:57:50;0.30;;;0.30;;
12275;SDS011;6200;48.144;11.424;2024-02-21T03:00:16;0.33;;;0.33;;
12275;SDS011;6200;48.144;11.424;2024-02-21T03:02:42;0.40;;;0.40;;
12275;SDS011;6200;48.144;11.424;2024-02-21T03:05:11;0.40;;;0.40;;
12275;SDS011;6200;48.144;11.424;2024-02-21T03:07:39;0.30;;;0.30;;
12275;SDS011;6200;48.144;11.424;2024-02-21T03:10:05;0.57;;;0.57;;
12275;SDS011;6200;48.144;11.424;2024-02-21T03:12:31;0.50;;;0.50;;
12275;SDS011;6200;48.144;11.424;2024-02-21T03:14:57;0.40;;;0.40;;
12275;SDS011;6200;48.144;11.424;2024-02-21T03:17:22;0.40;;;0.40;;
12275;SDS011;6200;48.144;11.424;2024-02-21T03:19:48;0.30;;;0.30;;
12275;SDS011;6200;48.144;11.424;2024-02-21T03:22:14;0.40;;;0.40;;
12275;SDS011;6200;48.144;11.424;2024-02-21T03:24:40;0.50;;;0.50;;
12275;SDS011;6200;48.144;11.424;2024-02-21T03:27:06;0.43;;;0.43;;
12275;SDS011;6200;48.144;11.424;2024-02-21T03:29:31;0.30;;;0.30;;
12275;SDS011;6200;48.144;11.424;2024-02-21T03:31:57;0.30;;;0.30;;
12275;SDS011;6200;48.144;11.424;2024-02-21T03:34:22;0.30;;;0.30;;
12275;SDS011;6200;48.144;11.424;2024-02-21T03:36:48;0.30;;;0.30;;
12275;SDS011;6200;48.144;11.424;2024-02-21T03:39:13;0.50;;;0.50;;
12275;SDS011;6200;48.144;11.424;2024-02-21T03:41:39;0.30;;;0.30;;
12275;SDS011;6200;48.144;11.424;2024-02-21T03:44:04;0.30;;;0.30;;
12275;SDS011;6200;48.144;11.424;2024-02-21T03:46:30;0.30;;;0.30;;
12275;SDS011;6200;48.144;11.424;2024-02-21T03:48:56;0.40;;;0.40;;
12275;SDS011;6200;48.144;11.424;2024-02-21T03:51:22;0.30;;;0.30;;
12275;SDS011;6200;48.144;11.424;2024-02-21T03:53:48;0.37;;;0.37;;
12275;SDS011;6200;48.144;11.424;2024-02-21T03:56:13;0.43;;;0.43;;
12275;SDS011;6200;48.144;11.424;2024-02-21T03:58:39;0.50;;;0.50;;
12275;SDS011;6200;48.144;11.424;2024-02-21T04:01:04;0.40;;;0.40;;
12275;SDS011;6200;48.144;11.424;2024-02-21T04:03:30;0.40;;;0.40;;
12275;SDS011;6200;48.144;11.424;2024-02-21T04:05:56;0.47;;;0.47;;
12275;SDS011;6200;48.144;11.424;2024-02-21T04:08:22;0.40;;;0.40;;
12275;SDS011;6200;48.144;11.424;2024-02-21T04:10:48;0.40;;;0.40;;
12275;SDS011;6200;48.144;11.424;2024-02-21T04:13:13;0.40;;;0.40;;
12275;SDS011;6200;48.144;11.424;2024-02-21T04:15:39;0.30;;;0.30;;
12275;SDS011;6200;48.144;11.424;2024-02-21T04:18:04;0.50;;;0.50;;
12275;SDS011;6200;48.144;11.424;2024-02-21T04:20:30;0.40;;;0.40;;
12275;SDS011;6200;48.144;11.424;2024-02-21T04:22:56;0.40;;;0.40;;
12275;SDS011;6200;48.144;11.424;2024-02-21T04:25:22;0.40;;;0.40;;
12275;SDS011;6200;48.144;11.424;2024-02-21T04:27:47;0.40;;;0.40;;
12275;SDS011;6200;48.144;11.424;2024-02-21T04:30:13;0.40;;;0.40;;
12275;SDS011;6200;48.144;11.424;2024-02-21T04:32:39;0.40;;;0.40;;
12275;SDS011;6200;48.144;11.424;2024-02-21T04:35:05;0.50;;;0.50;;
12275;SDS011;6200;48.144;11.424;2024-02-21T04:37:32;0.30;;;0.30;;
12275;SDS011;6200;48.144;11.424;2024-02-21T04:39:57;0.40;;;0.40;;
12275;SDS011;6200;48.144;11.424;2024-02-21T04:42:23;0.50;;;0.50;;
12275;SDS011;6200;48.144;11.424;2024-02-21T04:44:48;0.30;;;0.30;;
12275;SDS011;6200;48.144;11.424;2024-02-21T04:47:14;0.53;;;0.53;;
12275;SDS011;6200;48.144;11.424;2024-02-21T04:49:39;0.50;;;0.50;;
12275;SDS011;6200;48.144;11.424;2024-02-21T04:52:05;0.50;;;0.50;;
12275;SDS011;6200;48.144;11.424;2024-02-21T04:54:30;0.47;;;0.47;;
12275;SDS011;6200;48.144;11.424;2024-02-21T04:56:56;0.47;;;0.47;;
12275;SDS011;6200;48.144;11.424;2024-02-21T04:59:21;0.50;;;0.50;;
12275;SDS011;6200;48.144;11.424;2024-02-21T05:01:47;0.30;;;0.30;;
12275;SDS011;6200;48.144;11.424;2024-02-21T05:04:12;0.50;;;0.50;;
12275;SDS011;6200;48.144;11.424;2024-02-21T05:06:38;0.60;;;0.60;;
12275;SDS011;6200;48.144;11.424;2024-02-21T05:09:07;0.47;;;0.47;;
12275;SDS011;6200;48.144;11.424;2024-02-21T05:11:34;0.50;;;0.50;;
12275;SDS011;6200;48.144;11.424;2024-02-21T05:14:00;0.57;;;0.57;;
12275;SDS011;6200;48.144;11.424;2024-02-21T05:16:25;0.47;;;0.47;;
12275;SDS011;6200;48.144;11.424;2024-02-21T05:18:51;0.40;;;0.40;;
12275;SDS011;6200;48.144;11.424;2024-02-21T05:21:16;0.40;;;0.40;;
12275;SDS011;6200;48.144;11.424;2024-02-21T05:23:42;0.40;;;0.40;;
12275;SDS011;6200;48.144;11.424;2024-02-21T05:26:08;0.50;;;0.50;;
12275;SDS011;6200;48.144;11.424;2024-02-21T05:28:34;0.47;;;0.47;;
12275;SDS011;6200;48.144;11.424;2024-02-21T05:30:59;0.40;;;0.40;;
12275;SDS011;6200;48.144;11.424;2024-02-21T05:33:25;0.40;;;0.40;;
12275;SDS011;6200;48.144;11.424;2024-02-21T05:35:51;0.50;;;0.50;;
12275;SDS011;6200;48.144;11.424;2024-02-21T05:38:16;0.50;;;0.50;;
12275;SDS011;6200;48.144;11.424;2024-02-21T05:40:42;0.50;;;0.50;;
12275;SDS011;6200;48.144;11.424;2024-02-21T05:43:09;0.60;;;0.60;;
12275;SDS011;6200;48.144;11.424;2024-02-21T05:45:35;0.40;;;0.40;;
12275;SDS011;6200;48.144;11.424;2024-02-21T05:48:01;0.40;;;0.40;;
12275;SDS011;6200;48.144;11.424;2024-02-21T05:50:27;0.60;;;0.60;;
12275;SDS011;6200;48.144;11.424;2024-02-21T05:52:56;0.47;;;0.47;;
12275;SDS011;6200;48.144;11.424;2024-02-21T05:55:22;0.40;;;0.40;;
12275;SDS011;6200;48.144;11.424;2024-02-21T05:57:48;0.50;;;0.50;;
12275;SDS011;6200;48.144;11.424;2024-02-21T06:00:14;0.40;;;0.40;;
12275;SDS011;6200;48.144;11.424;2024-02-21T06:02:40;0.40;;;0.40;;
12275;SDS011;6200;48.144;11.424;2024-02-21T06:05:06;0.50;;;0.50;;
12275;SDS011;6200;48.144;11.424;2024-02-21T06:07:33;0.50;;;0.50;;
12275;SDS011;6200;48.144;11.424;2024-02-21T06:09:59;0.40;;;0.40;;
12275;SDS011;6200;48.144;11.424;2024-02-21T06:12:25;0.40;;;0.40;;
12275;SDS011;6200;48.144;11.424;2024-02-21T06:14:51;0.50;;;0.50;;
12275;SDS011;6200;48.144;11.424;2024-02-21T06:17:17;0.50;;;0.50;;
12275;SDS011;6200;48.144;11.424;2024-02-21T06:19:43;0.50;;;0.50;;
12275;SDS011;6200;48.144;11.424;2024-02-21T06:22:09;0.40;;;0.40;;
12275;SDS011;6200;48.144;11.424;2024-02-21T06:24:35;0.40;;;0.40;;
12275;SDS011;6200;48.144;11.424;2024-02-21T06:27:01;0.40;;;0.40;;
12275;SDS011;6200;48.144;11.424;2024-02-21T06:29:33;0.50;;;0.50;;
12275;SDS011;6200;48.144;11.424;2024-02-21T06:31:59;0.37;;;0.37;;
12275;SDS011;6200;48.144;11.424;2024-02-21T06:34:25;0.40;;;0.40;;
12275;SDS011;6200;48.144;11.424;2024-02-21T06:36:50;0.40;;;0.40;;
12275;SDS011;6200;48.144;11.424;2024-02-21T06:39:16;0.50;;;0.50;;
12275;SDS011;6200;48.144;11.424;2024-02-21T06:41:42;0.40;;;0.40;;
12275;SDS011;6200;48.144;11.424;2024-02-21T06:44:08;0.50;;;0.50;;
12275;SDS011;6200;48.144;11.424;2024-02-21T06:46:33;0.40;;;0.40;;
12275;SDS011;6200;48.144;11.424;2024-02-21T06:48:59;0.50;;;0.50;;
12275;SDS011;6200;48.144;11.424;2024-02-21T06:51:26;0.50;;;0.50;;
12275;SDS011;6200;48.144;11.424;2024-02-21T06:53:52;0.50;;;0.50;;
12275;SDS011;6200;48.144;11.424;2024-02-21T06:56:18;0.40;;;0.40;;
12275;SDS011;6200;48.144;11.424;2024-02-21T06:58:44;0.40;;;0.40;;
12275;SDS011;6200;48.144;11.424;2024-02-21T07:01:10;0.40;;;0.40;;
12275;SDS011;6200;48.144;11.424;2024-02-21T07:03:35;0.40;;;0.40;;
12275;SDS011;6200;48.144;11.424;2024-02-21T07:06:01;0.50;;;0.50;;
12275;SDS011;6200;48.144;11.424;2024-02-21T07:08:27;0.50;;;0.50;;
12275;SDS011;6200;48.144;11.424;2024-02-21T07:10:52;0.37;;;0.37;;
12275;SDS011;6200;48.144;11.424;2024-02-21T07:13:18;0.50;;;0.50;;
12275;SDS011;6200;48.144;11.424;2024-02-21T07:15:43;0.50;;;0.50;;
12275;SDS011;6200;48.144;11.424;2024-02-21T07:18:09;0.40;;;0.40;;
12275;SDS011;6200;48.144;11.424;2024-02-21T07:20:35;0.40;;;0.40;;
12275;SDS011;6200;48.144;11.424;2024-02-21T07:23:02;0.60;;;0.60;;
12275;SDS011;6200;48.144;11.424;2024-02-21T07:25:28;0.50;;;0.50;;
12275;SDS011;6200;48.144;11.424;2024-02-21T07:27:53;0.40;;;0.40;;
12275;SDS011;6200;48.144;11.424;2024-02-21T07:30:19;0.60;;;0.60;;
12275;SDS011;6200;48.144;11.424;2024-02-21T07:32:45;0.50;;;0.50;;
12275;SDS011;6200;48.144;11.424;2024-02-21T07:35:10;0.50;;;0.50;;
12275;SDS011;6200;48.144;11.424;2024-02-21T07:37:37;0.50;;;0.50;;
12275;SDS011;6200;48.144;11.424;2024-02-21T07:40:04;0.30;;;0.30;;
12275;SDS011;6200;48.144;11.424;2024-02-21T07:42:31;0.50;;;0.50;;
12275;SDS011;6200;48.144;11.424;2024-02-21T07:44:56;0.40;;;0.40;;
12275;SDS011;6200;48.144;11.424;2024-02-21T07:47:22;0.30;;;0.30;;
12275;SDS011;6200;48.144;11.424;2024-02-21T07:49:48;0.50;;;0.50;;
12275;SDS011;6200;48.144;11.424;2024-02-21T07:52:14;0.40;;;0.40;;
12275;SDS011;6200;48.144;11.424;2024-02-21T07:54:40;0.40;;;0.40;;
12275;SDS011;6200;48.144;11.424;2024-02-21T07:57:06;0.40;;;0.40;;
12275;SDS011;6200;48.144;11.424;2024-02-21T07:59:32;0.40;;;0.40;;
12275;SDS011;6200;48.144;11.424;2024-02-21T08:01:58;0.50;;;0.50;;
12275;SDS011;6200;48.144;11.424;2024-02-21T08:04:24;0.50;;;0.50;;
12275;SDS011;6200;48.144;11.424;2024-02-21T08:06:55;0.47;;;0.47;;
12275;SDS011;6200;48.144;11.424;2024-02-21T08:09:24;0.40;;;0.40;;
12275;SDS011;6200;48.144;11.424;2024-02-21T08:11:49;0.30;;;0.30;;
12275;SDS011;6200;48.144;11.424;2024-02-21T08:14:15;0.40;;;0.40;;
12275;SDS011;6200;48.144;11.424;2024-02-21T08:16:41;0.30;;;0.30;;
12275;SDS011;6200;48.144;11.424;2024-02-21T08:19:07;0.33;;;0.33;;
12275;SDS011;6200;48.144;11.424;2024-02-21T08:21:33;0.47;;;0.47;;
12275;SDS011;6200;48.144;11.424;2024-02-21T08:23:58;0.27;;;0.27;;
12275;SDS011;6200;48.144;11.424;2024-02-21T08:26:24;0.33;;;0.33;;
12275;SDS011;6200;48.144;11.424;2024-02-21T08:28:52;0.30;;;0.30;;
12275;SDS011;6200;48.144;11.424;2024-02-21T08:31:18;0.30;;;0.30;;
12275;SDS011;6200;48.144;11.424;2024-02-21T08:33:45;0.33;;;0.33;;
12275;SDS011;6200;48.144;11.424;2024-02-21T08:36:17;0.30;;;0.30;;
12275;SDS011;6200;48.144;11.424;2024-02-21T08:38:44;0.37;;;0.37;;
12275;SDS011;6200;48.144;11.424;2024-02-21T08:41:10;0.20;;;0.20;;
12275;SDS011;6200;48.144;11.424;2024-02-21T08:43:35;0.30;;;0.30;;
12275;SDS011;6200;48.144;11.424;2024-02-21T08:46:01;0.30;;;0.30;;
12275;SDS011;6200;48.144;11.424;2024-02-21T08:48:26;0.30;;;0.30;;
12275;SDS011;6200;48.144;11.424;2024-02-21T08:50:52;0.20;;;0.20;;
12275;SDS011;6200;48.144;11.424;2024-02-21T08:53:19;0.30;;;0.30;;
12275;SDS011;6200;48.144;11.424;2024-02-21T08:55:45;0.30;;;0.30;;
12275;SDS011;6200;48.144;11.424;2024-02-21T08:58:10;0.20;;;0.20;;
12275;SDS011;6200;48.144;11.424;2024-02-21T09:00:36;0.20;;;0.20;;
12275;SDS011;6200;48.144;11.424;2024-02-21T09:03:02;0.20;;;0.20;;
12275;SDS011;6200;48.144;11.424;2024-02-21T09:05:28;0.20;;;0.20;;
12275;SDS011;6200;48.144;11.424;2024-02-21T09:07:54;0.20;;;0.20;;
12275;SDS011;6200;48.144;11.424;2024-02-21T09:10:20;0.30;;;0.30;;
12275;SDS011;6200;48.144;11.424;2024-02-21T09:12:46;0.20;;;0.20;;
12275;SDS011;6200;48.144;11.424;2024-02-21T09:15:12;0.30;;;0.30;;
12275;SDS011;6200;48.144;11.424;2024-02-21T09:17:38;0.20;;;0.20;;
12275;SDS011;6200;48.144;11.424;2024-02-21T09:20:04;0.20;;;0.20;;
12275;SDS011;6200;48.144;11.424;2024-02-21T09:22:31;0.20;;;0.20;;
12275;SDS011;6200;48.144;11.424;2024-02-21T09:24:59;0.20;;;0.20;;
12275;SDS011;6200;48.144;11.424;2024-02-21T09:27:25;0.30;;;0.30;;
12275;SDS011;6200;48.144;11.424;2024-02-21T09:29:50;0.30;;;0.30;;
12275;SDS011;6200;48.144;11.424;2024-02-21T09:32:16;0.20;;;0.20;;
12275;SDS011;6200;48.144;11.424;2024-02-21T09:34:44;0.20;;;0.20;;
12275;SDS011;6200;48.144;11.424;2024-02-21T09:37:10;0.20;;;0.20;;
12275;SDS011;6200;48.144;11.424;2024-02-21T09:39:35;0.23;;;0.23;;
12275;SDS011;6200;48.144;11.424;2024-02-21T09:42:03;0.20;;;0.20;;
12275;SDS011;6200;48.144;11.424;2024-02-21T09:44:33;0.23;;;0.23;;
12275;SDS011;6200;48.144;11.424;2024-02-21T09:47:03;0.20;;;0.20;;
12275;SDS011;6200;48.144;11.424;2024-02-21T09:52:02;0.30;;;0.30;;
12275;SDS011;6200;48.144;11.424;2024-02-21T09:54:29;0.20;;;0.20;;
12275;SDS011;6200;48.144;11.424;2024-02-21T09:56:59;0.30;;;0.30;;
12275;SDS011;6200;48.144;11.424;2024-02-21T09:59:25;0.20;;;0.20;;
12275;SDS011;6200;48.144;11.424;2024-02-21T10:01:52;0.20;;;0.20;;
12275;SDS011;6200;48.144;11.424;2024-02-21T10:04:19;0.20;;;0.20;;
12275;SDS011;6200;48.144;11.424;2024-02-21T10:06:45;0.20;;;0.20;;
12275;SDS011;6200;48.144;11.424;2024-02-21T10:09:22;0.20;;;0.20;;
12275;SDS011;6200;48.144;11.424;2024-02-21T10:11:49;0.20;;;0.20;;
12275;SDS011;6200;48.144;11.424;2024-02-21T10:14:16;0.20;;;0.20;;
12275;SDS011;6200;48.144;11.424;2024-02-21T10:16:43;0.20;;;0.20;;
12275;SDS011;6200;48.144;11.424;2024-02-21T10:19:19;0.20;;;0.20;;
12275;SDS011;6200;48.144;11.424;2024-02-21T10:21:58;0.20;;;0.20;;
12275;SDS011;6200;48.144;11.424;2024-02-21T10:24:28;0.20;;;0.20;;
12275;SDS011;6200;48.144;11.424;2024-02-21T10:27:04;0.20;;;0.20;;
12275;SDS011;6200;48.144;11.424;2024-02-21T10:29:33;0.20;;;0.20;;
12275;SDS011;6200;48.144;11.424;2024-02-21T10:32:03;0.20;;;0.20;;
12275;SDS011;6200;48.144;11.424;2024-02-21T10:34:39;0.20;;;0.20;;
12275;SDS011;6200;48.144;11.424;2024-02-21T10:37:06;0.20;;;0.20;;
12275;SDS011;6200;48.144;11.424;2024-02-21T10:39:34;0.20;;;0.20;;
12275;SDS011;6200;48.144;11.424;2024-02-21T10:42:02;0.20;;;0.20;;
12275;SDS011;6200;48.144;11.424;2024-02-21T10:44:29;0.20;;;0.20;;
12275;SDS011;6200;48.144;11.424;2024-02-21T10:46:56;0.20;;;0.20;;
12275;SDS011;6200;48.144;11.424;2024-02-21T10:49:23;0.23;;;0.23;;
12275;SDS011;6200;48.144;11.424;2024-02-21T10:52:14;0.20;;;0.20;;
12275;SDS011;6200;48.144;11.424;2024-02-21T10:54:59;0.20;;;0.20;;
12275;SDS011;6200;48.144;11.424;2024-02-21T10:57:28;0.20;;;0.20;;
12275;SDS011;6200;48.144;11.424;2024-02-21T10:59:56;0.20;;;0.20;;
12275;SDS011;6200;48.144;11.424;2024-02-21T11:02:24;0.20;;;0.20;;
12275;SDS011;6200;48.144;11.424;2024-02-21T11:04:51;0.20;;;0.20;;
12275;SDS011;6200;48.144;11.424;2024-02-21T11:07:18;0.20;;;0.20;;
12275;SDS011;6200;48.144;11.424;2024-02-21T11:09:51;0.20;;;0.20;;
12275;SDS011;6200;48.144;11.424;2024-02-21T11:12:20;0.20;;;0.20;;
12275;SDS011;6200;48.144;11.424;2024-02-21T11:14:46;0.20;;;0.20;;
12275;SDS011;6200;48.144;11.424;2024-02-21T11:17:15;0.20;;;0.20;;
12275;SDS011;6200;48.144;11.424;2024-02-21T11:19:41;0.20;;;0.20;;
12275;SDS011;6200;48.144;11.424;2024-02-21T11:22:13;0.20;;;0.20;;
12275;SDS011;6200;48.144;11.424;2024-02-21T11:24:41;0.20;;;0.20;;
12275;SDS011;6200;48.144;11.424;2024-02-21T11:27:14;0.20;;;0.20;;
12275;SDS011;6200;48.144;11.424;2024-02-21T11:29:44;0.20;;;0.20;;
12275;SDS011;6200;48.144;11.424;2024-02-21T11:32:22;0.20;;;0.20;;
12275;SDS011;6200;48.144;11.424;2024-02-21T11:35:07;0.20;;;0.20;;
12275;SDS011;6200;48.144;11.424;2024-02-21T11:37:34;0.20;;;0.20;;
12275;SDS011;6200;48.144;11.424;2024-02-21T11:40:02;0.20;;;0.20;;
12275;SDS011;6200;48.144;11.424;2024-02-21T11:42:28;0.20;;;0.20;;
12275;SDS011;6200;48.144;11.424;2024-02-21T11:44:56;0.20;;;0.20;;
12275;SDS011;6200;48.144;11.424;2024-02-21T11:47:22;0.20;;;0.20;;
12275;SDS011;6200;48.144;11.424;2024-02-21T11:49:48;0.20;;;0.20;;
12275;SDS011;6200;48.144;11.424;2024-02-21T11:52:15;0.20;;;0.20;;
12275;SDS011;6200;48.144;11.424;2024-02-21T11:54:41;0.20;;;0.20;;
12275;SDS011;6200;48.144;11.424;2024-02-21T11:57:07;0.20;;;0.20;;
12275;SDS011;6200;48.144;11.424;2024-02-21T11:59:33;0.20;;;0.20;;
12275;SDS011;6200;48.144;11.424;2024-02-21T12:02:02;0.20;;;0.20;;
12275;SDS011;6200;48.144;11.424;2024-02-21T12:04:28;0.20;;;0.20;;
12275;SDS011;6200;48.144;11.424;2024-02-21T12:06:56;0.20;;;0.20;;
12275;SDS011;6200;48.144;11.424;2024-02-21T12:09:23;0.20;;;0.20;;
12275;SDS011;6200;48.144;11.424;2024-02-21T12:11:58;0.20;;;0.20;;
12275;SDS011;6200;48.144;11.424;2024-02-21T12:14:28;0.20;;;0.20;;
12275;SDS011;6200;48.144;11.424;2024-02-21T12:17:00;0.20;;;0.20;;
12275;SDS011;6200;48.144;11.424;2024-02-21T12:19:30;0.20;;;0.20;;
12275;SDS011;6200;48.144;11.424;2024-02-21T12:21:56;0.20;;;0.20;;
12275;SDS011;6200;48.144;11.424;2024-02-21T12:24:24;0.20;;;0.20;;
12275;SDS011;6200;48.144;11.424;2024-02-21T12:26:50;0.20;;;0.20;;
12275;SDS011;6200;48.144;11.424;2024-02-21T12:29:17;0.20;;;0.20;;
12275;SDS011;6200;48.144;11.424;2024-02-21T12:31:43;0.20;;;0.20;;
12275;SDS011;6200;48.144;11.424;2024-02-21T12:34:09;0.20;;;0.20;;
12275;SDS011;6200;48.144;11.424;2024-02-21T12:36:36;0.20;;;0.20;;
12275;SDS011;6200;48.144;11.424;2024-02-21T12:39:13;0.20;;;0.20;;
12275;SDS011;6200;48.144;11.424;2024-02-21T12:41:39;0.20;;;0.20;;
12275;SDS011;6200;48.144;11.424;2024-02-21T12:44:06;0.20;;;0.20;;
12275;SDS011;6200;48.144;11.424;2024-02-21T12:46:36;0.20;;;0.20;;
12275;SDS011;6200;48.144;11.424;2024-02-21T12:49:02;0.20;;;0.20;;
12275;SDS011;6200;48.144;11.424;2024-02-21T12:51:29;0.20;;;0.20;;
12275;SDS011;6200;48.144;11.424;2024-02-21T12:53:55;0.20;;;0.20;;
12275;SDS011;6200;48.144;11.424;2024-02-21T12:56:21;0.20;;;0.20;;
12275;SDS011;6200;48.144;11.424;2024-02-21T12:58:47;0.20;;;0.20;;
12275;SDS011;6200;48.144;11.424;2024-02-21T13:01:12;0.20;;;0.20;;
12275;SDS011;6200;48.144;11.424;2024-02-21T13:03:38;0.20;;;0.20;;
12275;SDS011;6200;48.144;11.424;2024-02-21T13:06:04;0.20;;;0.20;;
12275;SDS011;6200;48.144;11.424;2024-02-21T13:08:31;0.20;;;0.20;;
12275;SDS011;6200;48.144;11.424;2024-02-21T13:10:59;0.20;;;0.20;;
12275;SDS011;6200;48.144;11.424;2024-02-21T13:13:24;0.20;;;0.20;;
12275;SDS011;6200;48.144;11.424;2024-02-21T13:15:50;0.20;;;0.20;;
12275;SDS011;6200;48.144;11.424;2024-02-21T13:18:15;0.20;;;0.20;;
12275;SDS011;6200;48.144;11.424;2024-02-21T13:20:41;0.20;;;0.20;;
12275;SDS011;6200;48.144;11.424;2024-02-21T13:23:06;0.20;;;0.20;;
12275;SDS011;6200;48.144;11.424;2024-02-21T13:25:32;0.20;;;0.20;;
12275;SDS011;6200;48.144;11.424;2024-02-21T13:27:57;0.20;;;0.20;;
12275;SDS011;6200;48.144;11.424;2024-02-21T13:30:23;0.20;;;0.20;;
12275;SDS011;6200;48.144;11.424;2024-02-21T13:32:50;0.20;;;0.20;;
12275;SDS011;6200;48.144;11.424;2024-02-21T13:35:15;0.20;;;0.20;;
12275;SDS011;6200;48.144;11.424;2024-02-21T13:37:41;0.20;;;0.20;;
12275;SDS011;6200;48.144;11.424;2024-02-21T13:40:07;0.20;;;0.20;;
12275;SDS011;6200;48.144;11.424;2024-02-21T13:42:38;0.20;;;0.20;;
12275;SDS011;6200;48.144;11.424;2024-02-21T13:45:05;0.20;;;0.20;;
12275;SDS011;6200;48.144;11.424;2024-02-21T13:47:34;0.20;;;0.20;;
12275;SDS011;6200;48.144;11.424;2024-02-21T13:50:06;0.20;;;0.20;;
12275;SDS011;6200;48.144;11.424;2024-02-21T13:52:36;0.20;;;0.20;;
12275;SDS011;6200;48.144;11.424;2024-02-21T13:55:02;0.20;;;0.20;;
12275;SDS011;6200;48.144;11.424;2024-02-21T13:57:28;0.20;;;0.20;;
12275;SDS011;6200;48.144;11.424;2024-02-21T13:59:54;0.20;;;0.20;;
12275;SDS011;6200;48.144;11.424;2024-02-21T14:02:19;0.20;;;0.20;;
12275;SDS011;6200;48.144;11.424;2024-02-21T14:04:46;0.30;;;0.30;;
12275;SDS011;6200;48.144;11.424;2024-02-21T14:07:12;0.20;;;0.20;;
12275;SDS011;6200;48.144;11.424;2024-02-21T14:09:37;0.20;;;0.20;;
12275;SDS011;6200;48.144;11.424;2024-02-21T14:12:03;0.20;;;0.20;;
12275;SDS011;6200;48.144;11.424;2024-02-21T14:14:32;0.20;;;0.20;;
12275;SDS011;6200;48.144;11.424;2024-02-21T14:16:59;0.20;;;0.20;;
12275;SDS011;6200;48.144;11.424;2024-02-21T14:19:25;0.20;;;0.20;;
12275;SDS011;6200;48.144;11.424;2024-02-21T14:21:50;0.20;;;0.20;;
12275;SDS011;6200;48.144;11.424;2024-02-21T14:24:16;0.20;;;0.20;;
12275;SDS011;6200;48.144;11.424;2024-02-21T14:26:41;0.20;;;0.20;;
12275;SDS011;6200;48.144;11.424;2024-02-21T14:29:07;0.20;;;0.20;;
12275;SDS011;6200;48.144;11.424;2024-02-21T14:31:32;0.20;;;0.20;;
12275;SDS011;6200;48.144;11.424;2024-02-21T14:33:58;0.20;;;0.20;;
12275;SDS011;6200;48.144;11.424;2024-02-21T14:36:24;0.20;;;0.20;;
12275;SDS011;6200;48.144;11.424;2024-02-21T14:38:51;0.20;;;0.20;;
12275;SDS011;6200;48.144;11.424;2024-02-21T14:41:17;0.20;;;0.20;;
12275;SDS011;6200;48.144;11.424;2024-02-21T14:43:43;0.20;;;0.20;;
12275;SDS011;6200;48.144;11.424;2024-02-21T14:46:08;0.20;;;0.20;;